Onion Creek, California Weather observations

Data are for observation ending at time listed.
 Day   Time    Ave.   Ave.  Ave.  Vector   Max.   Stn.    Total    Solar   Ave.   Snow 
  of    of     Air    Rel.  Wind   Wind    Wind   Baro.  Precip.   Rad.    Soil   Depth
Year   Day     Temp.  Hum.  Speed  Dir.    Gust   Pres.                    Temp.       
2015   (PST)    F      %     mph   deg.    mph     mb.     in.     W/m2     F      in. 
---------------------------------------------------------------------------------------  
 117    1:40   43.5    48    2.0     2      6.2   832.9   30.79       0    41.2   999.0
 117    1:50   43.3    49    2.9     1      9.0   833.0   30.79       0    41.1   999.0
 117    2:00   43.4    48    3.2   347     12.1   833.0   30.79       0    41.1   999.0
 117    2:10   43.8    47    2.7   344     14.1   832.9   30.79       0    41.0   999.0
 117    2:20   43.9    47    3.0     9     13.7   832.8   30.79       0    40.9   999.0
 117    2:30   44.4    46    2.5     7     10.3   832.8   30.79       0    40.8   999.0
 117    2:40   44.8    46    2.6    54      7.9   832.8   30.79       0    40.8   999.0
 117    2:50   44.8    46    1.9    85      8.7   833.0   30.79       0    40.7   999.0
 117    3:00   44.3    47    1.7   318      9.6   833.2   30.79       0    40.6   999.0
 117    3:10   43.9    48    2.1   207      6.2   833.1   30.79       0    40.6   999.0
 117    3:20   44.0    47    2.6     2      8.4   833.2   30.79       0    40.5   999.0
 117    3:30   43.8    50    2.4   179      8.4   833.2   30.79       0    40.4   999.0
 117    3:40   43.5    51    2.6   147      8.3   833.2   30.79       0    40.4   999.0
 117    3:50   43.3    53    2.7   173      7.5   833.2   30.79       0    40.3   999.0
 117    4:00   42.2    54    3.8   216      8.2   833.2   30.79       0    40.3   999.0
 117    4:10   41.2    60    2.7   242      6.4   833.4   30.79       0    40.2   999.0
 117    4:20   39.9    62    3.0   248      6.1   833.6   30.79       0    40.1   999.0
 117    4:30   40.3    61    2.1   106      7.4   833.7   30.79       0    40.0   999.0
 117    4:40   41.2    57    1.8    87      6.6   833.6   30.79       0    40.0   999.0
 117    4:50   42.1    54    2.5     5     10.9   833.5   30.79       0    39.9   999.0
 117    5:00   43.2    51    2.8   113      9.0   833.4   30.79       1    39.8   999.0
 117    5:10   43.4    50    2.7    66      8.6   833.3   30.79       2    39.8   999.0
 117    5:20   43.3    50    2.3   213     11.8   833.2   30.79       4    39.7   999.0
 117    5:30   43.0    53    3.1   225      9.1   833.1   30.79       7    39.7   999.0
 117    5:40   42.3    55    3.2   250     11.8   833.3   30.76       9    39.6   999.0
 117    5:50   42.2    55    4.7   231     14.0   833.5   30.79      11    39.5   999.0
 117    6:00   41.1    61    2.5   271      8.9   833.5   30.79      12    39.5   999.0
 117    6:10   41.0    58    3.4   224      9.8   833.3   30.79      14    39.5   999.0
 117    6:20   41.5    57    2.0   268      8.2   833.3   30.79      16    39.4   999.0
 117    6:30   41.3    56    3.1   274     11.4   833.4   30.76      17    39.3   999.0
 117    6:40   43.5    47    2.9   349     10.6   833.4   30.79      19    39.3   999.0
 117    6:50   44.1    46    2.5    63      9.0   833.5   30.79      22    39.3   999.0
 117    7:00   44.5    46    2.2   226      6.3   833.6   30.76     193    39.2   999.0
 117    7:10   45.5    46    2.5   138      8.0   833.7   30.76     380    39.2   999.0
 117    7:20   46.5    43    3.1    45     10.7   833.8   30.79     163    39.2   999.0
 117    7:30   46.3    44    2.0   242      5.4   833.8   30.79      51    39.1   999.0
 117    7:40   46.2    45    2.8   360      7.7   833.9   30.79      59    39.1   999.0
 117    7:50   46.6    46    2.9   228      6.6   833.9   30.79      32    39.2   999.0
 117    8:00   47.1    45    2.8   319     11.0   834.0   30.76      34    39.2   999.0
 117    8:10   47.7    44    2.5    11      7.7   834.1   30.79      34    39.2   999.0
 117    8:20   48.3    45    2.8   249     10.6   834.1   30.79      35    39.3   999.0
 117    8:30   48.5    43    3.7    94      8.7   834.0   30.76     234    39.3   999.0
 117    8:40   49.2    44    3.5   328     12.4   834.0   30.79     683    39.3   999.0
 117    8:50   50.0    41    3.6    50     10.3   833.9   30.76     716    39.4   999.0
 117    9:00   51.1    40    3.2   287      9.1   834.0   30.79     745    39.4   999.0
 117    9:10   51.7    40    3.7   358     10.9   834.0   30.79     772    39.5   999.0
 117    9:20   52.6    40    3.0   319      9.3   834.1   30.76     799    39.5   999.0
 117    9:30   53.3    39    2.9   345     10.1   834.1   30.76     827    39.6   999.0
 117    9:40   54.2    38    2.7    42      5.9   834.1   30.76     853    39.8   999.0
 117    9:50   54.7    36    3.7   343      9.1   834.0   30.76     876    40.1   999.0
 117   10:00   55.1    37    3.1   325      8.8   834.0   30.79     900    40.4   999.0
 117   10:10   55.8    35    2.7   306      6.5   834.0   30.79     891    40.7   999.0
 117   10:20   56.0    36    3.1   260      7.1   834.2   30.76     943    41.1   999.0
 117   10:30   56.7    34    2.8   282      6.9   834.2   30.79     965    41.5   999.0
 117   10:40   56.5    34    3.6   207      8.5   834.3   30.79     981    41.9   999.0
 117   10:50   56.9    34    2.8   203      7.9   834.3   30.76     997    42.4   999.0
 117   11:00   57.5    35    2.8   345      9.6   834.4   30.76    1011    43.0   999.0
 117   11:10   57.2    34    3.5    13      9.7   834.4   30.76    1019    43.5   999.0
 117   11:20   58.2    36    2.9   278      6.2   834.3   30.76    1020    44.1   999.0
 117   11:30   58.8    34    2.6   334      7.3   834.4   30.79    1031    44.6   999.0
 117   11:40   58.7    33    2.8   280      9.6   834.4   30.76    1048    45.2   999.0
 117   11:50   59.0    34    2.9   118     11.5   834.4   30.76    1052    45.7   999.0
 117   12:00   58.9    33    3.3   132     12.3   834.4   30.76    1045    46.2   999.0
 117   12:10   58.9    34    3.1   350      9.9   834.3   30.76    1033    46.6   999.0
 117   12:20   59.3    32    3.5   118      8.6   834.2   30.76    1028    47.0   999.0
 117   12:30   59.6    32    3.4   181      9.0   834.1   30.76    1036    47.3   999.0
 117   12:40   59.8    33    2.9   300      7.8   834.0   30.76    1040    47.6   999.0
 117   12:50   59.8    32    5.1   156     10.8   833.9   30.76    1035    47.8   999.0
 117   13:00   60.6    33    2.3   268      6.5   833.8   30.76    1030    48.1   999.0
 117   13:10   61.4    32    2.1   305      6.4   833.9   30.76    1019    48.5   999.0
 117   13:20   61.5    32    4.1   261      9.4   833.9   30.73    1007    48.9   999.0
 117   13:30   62.2    32    2.9   272      8.1   833.9   30.76     994    49.3   999.0
 117   13:40   62.0    30    2.4   253      8.3   833.9   30.76     982    49.7   999.0
 117   13:50   62.1    30    2.4    84      4.9   833.9   30.76     961    50.0   999.0
 117   14:00   62.3    29    2.2   194      6.6   833.8   30.76     943    50.4   999.0
 117   14:10   62.3    29    3.4    18      8.6   833.7   30.76     922    50.8   999.0
 117   14:20   62.7    29    2.8   101      7.7   833.7   30.73     898    51.1   999.0
 117   14:30   63.4    29    2.6   310      5.6   833.7   30.76     874    51.4   999.0
 117   14:40   63.7    28    2.6    96      7.0   833.6   30.73     845    51.8   999.0
 117   14:50   64.2    29    2.2   328      5.6   833.5   30.76     814    52.1   999.0
 117   15:00   64.0    27    2.7   279      6.2   833.4   30.73     776    52.3   999.0
 117   15:10   64.3    28    1.9   307      5.8   833.3   30.73     743    52.4   999.0
 117   15:20   64.5    27    1.9    36      4.5   833.3   30.73     712    52.6   999.0
 117   15:30   64.8    28    2.4   166     10.0   833.3   30.73     679    52.7   999.0
 117   15:40   64.3    27    1.9   308      7.6   833.3   30.73     649    52.8   999.0
 117   15:50   63.8    26    2.6   293      7.8   833.2   30.73     623    52.8   999.0
 117   16:00   63.6    27    2.4   314      7.2   833.1   30.73     591    52.8   999.0
 117   16:10   63.5    27    2.6   211      7.7   833.1   30.73     555    52.7   999.0
 117   16:20   63.6    27    1.9   317      4.7   833.2   30.73     517    52.7   999.0
 117   16:30   63.0    28    1.7   329      6.3   833.2   30.76     400    52.6   999.0
 117   16:40   62.3    28    1.9   313      6.3   833.1   30.73      70    52.5   999.0
 117   16:50   62.3    28    1.9   349      3.8   833.1   30.76      64    52.4   999.0
 117   17:00   62.6    28    1.8   246      5.1   833.0   30.73     137    52.3   999.0
 117   17:10   62.6    29    2.0   290      4.8   833.0   30.76     214    52.2   999.0
 117   17:20   62.3    34    1.2   305      3.2   833.0   30.76     136    52.0   999.0
 117   17:30   62.0    31    1.1   326      2.9   833.0   30.73     158    51.9   999.0
 117   17:40   60.7    44    1.1   298      2.3   832.9   30.76     213    51.8   999.0
 117   17:50   59.4    44    1.3   329      2.9   833.0   30.73     169    51.7   999.0
 117   18:00   56.6    52    1.0   336      1.9   833.1   30.73     149    51.6   999.0
 117   18:10   54.0    58    0.7   329      2.4   833.1   30.76      52    51.5   999.0
 117   18:20   51.7    63    1.2    36      2.6   833.2   30.73      15    51.4   999.0
 117   18:30   50.3    66    1.1    56      3.6   833.2   30.73      11    51.3   999.0
 117   18:40   49.2    71    1.3    25      3.1   833.1   30.73       9    51.2   999.0
 117   18:50   48.0    75    1.0    28      2.1   833.2   30.76       5    51.1   999.0
 117   19:00   47.0    77    1.2    32      2.2   833.3   30.76       2    50.9   999.0
 117   19:10   46.3    77    2.4    34      3.7   833.4   30.76       0    50.7   999.0
 117   19:20   46.0    77    2.0    27      2.9   833.5   30.73       0    50.6   999.0
 117   19:30   45.2    76    1.7    20      2.7   833.4   30.73       0    50.4   999.0
 117   19:40   44.8    74    1.9    22      3.1   833.5   30.73       0    50.2   999.0
 117   19:50   44.3    73    2.3    28      3.9   833.4   30.73       0    50.0   999.0
 117   20:00   44.0    72    2.3    34      4.1   833.5   30.76       0    49.9   999.0
 117   20:10   43.4    73    1.3    13      2.6   833.5   30.73       0    49.7   999.0
 117   20:20   42.8    72    1.5    30      3.4   833.5   30.76       0    49.5   999.0
 117   20:30   42.5    72    0.7    32      2.6   833.4   30.76       0    49.4   999.0
 117   20:40   42.0    72    1.2    84      3.1   833.5   30.76       0    49.2   999.0
 117   20:50   41.5    73    1.2    53      3.4   833.5   30.76       0    49.0   999.0
 117   21:00   41.1    74    1.0    60      3.1   833.5   30.73       0    48.8   999.0
 117   21:10   41.0    74    0.8    50      2.2   833.5   30.76       0    48.6   999.0
 117   21:20   40.6    75    0.6    24      2.0   833.5   30.76       0    48.4   999.0
 117   21:30   40.4    74    0.7    37      3.1   833.5   30.73       0    48.2   999.0
 117   21:40   40.7    71    0.9    45      3.3   833.5   30.76       0    48.1   999.0
 117   21:50   40.4    73    0.9    46      2.6   833.6   30.76       0    47.9   999.0
 117   22:00   40.7    70    0.8    26      2.3   833.6   30.76       0    47.7   999.0
 117   22:10   40.2    73    0.9    34      2.4   833.7   30.76       0    47.5   999.0
 117   22:20   40.4    72    0.9    39      2.5   833.7   30.76       0    47.3   999.0
 117   22:30   40.1    73    0.5    26      2.1   833.7   30.76       0    47.2   999.0
 117   22:40   39.7    74    1.3    43      2.5   833.7   30.76       0    47.0   999.0
 117   22:50   39.9    73    1.0    22      2.0   833.7   30.76       0    46.8   999.0
 117   23:00   39.4    75    1.3    30      3.2   833.6   30.76       0    46.7   999.0
 117   23:10   39.1    75    0.7    28      2.2   833.6   30.76       0    46.5   999.0
 117   23:20   38.8    75    1.2    38      2.8   833.6   30.76       0    46.3   999.0
 117   23:30   38.6    75    0.9    37      2.6   833.6   30.76       0    46.1   999.0
 117   23:40   38.6    74    1.2     2      3.1   833.5   30.76       0    46.0   999.0
 117   23:50   38.6    74    1.2    49      3.0   833.5   30.76       0    45.8   999.0
 118    0:00   38.7    70    0.9    45      2.6   833.4   30.76       0    45.7   999.0
 118    0:10   38.1    73    1.0    43      2.5   833.3   30.76       0    45.5   999.0
 118    0:20   38.1    72    0.9    37      3.0   833.2   30.76       0    45.3   999.0
 118    0:30   37.7    74    1.1    32      2.6   833.3   30.76       0    45.2   999.0
 118    0:40   38.3    71    1.5    32      3.4   833.1   30.76       0    45.0   999.0
 118    0:50   38.2    72    1.2    39      3.0   833.0   30.76       0    44.9   999.0
 118    1:00   38.0    72    1.1    42      2.7   833.0   30.76       0    44.7   999.0
 118    1:10   37.4    74    1.0    48      2.4   833.0   30.76       0    44.6   999.0
 118    1:20   37.6    72    1.7    34      3.0   833.0   30.76       0    44.4   999.0
 118    1:30   37.6    73    1.7    30      3.4   833.0   30.76       0    44.3   999.0

Return to Onion Creek graphs page.


Western Regional Climate Center,wrcc@dri.edu